• Join FlightAware (Why Join?)
  • Login
  • US Flag 
03:01AM EDT


 

Airport Tracker/Info


-or-


 

Live Flight TrackerFlight Track Log ✈ SKW4524 ✈ 10-May-2012 ✈ KCVG - KOMA

Flight Track Log - Related Links

Times and Time Zones

All times are in EDT time to prevent confusion due to time zone crossing. See the SKW4524 flight status page for this flight to view local times or setup timezone preferences in your user account.

Time Position Orientation Groundspeed Altitude Reporting Facility
EDT Latitude Longitude Course Direction KTS MPH feet Rate Location/Type
08:03PM 39.0500 -84.6833 278° West 152 175 1,300  Level Cincinnati TRACON
08:06PM 39.0756 -84.9319 291° West 377 434 8,300 2,220 Climbing Indianapolis Center
08:07PM 39.1017 -85.0208 292° West 289 333 10,800 2,160 Climbing Indianapolis Center
08:08PM 39.1317 -85.1178 289° West 284 327 12,700 1,920 Climbing Indianapolis Center
08:09PM 39.1594 -85.2200 290° West 303 349 14,700 1,800 Climbing Indianapolis Center
08:10PM 39.1931 -85.3386 297° West 312 359 16,400 1,500 Climbing Indianapolis Center
08:11PM 39.2353 -85.4444 309° West 322 371 17,800 1,380 Climbing Indianapolis Center
08:12PM 39.2922 -85.5344 309° West 327 376 19,200 1,320 Climbing Indianapolis Center
08:13PM 39.3511 -85.6272 301° West 333 383 20,500 1,200 Climbing Indianapolis Center
08:14PM 39.3992 -85.7308 278° West 333 383 21,600 1,260 Climbing Indianapolis Center
08:15PM 39.4136 -85.8575 281° West 343 395 23,100 1,140 Climbing Indianapolis Center
08:16PM 39.4319 -85.9819 292° West 357 411 23,900 780 Climbing Indianapolis Center
08:17PM 39.4692 -86.0989 280° West 352 405 24,700 660 Climbing Indianapolis Center
08:18PM 39.4853 -86.2150 277° West 352 405 25,300 600 Climbing Indianapolis Center
08:19PM 39.4969 -86.3447 278° West 368 423 26,000 300 Climbing Indianapolis Center
08:20PM 39.5122 -86.4825 278° West 379 436 26,000  Level Indianapolis Center
08:21PM 39.5275 -86.6231 278° West 393 452 26,000 240 Level Indianapolis Center
08:22PM 39.5442 -86.7800 277° West 398 458 26,500 720 Climbing Indianapolis Center
08:23PM 39.5569 -86.9208 278° West 403 464 27,500 1,020 Climbing Indianapolis Center
08:24PM 39.5719 -87.0533 276° West 393 452 28,600 840 Climbing Indianapolis Center
08:25PM 39.5822 -87.1914 279° West 387 445 29,200 1,680 Climbing Indianapolis Center
08:26PM 39.5992 -87.3242 278° West 382 440 32,000 480 Climbing Indianapolis Center
08:28PM 39.6325 -87.6469 277° West 402 463 30,900 -240 Descending Kansas City Center
08:29PM 39.6447 -87.7861 276° West 396 456 31,400 480 Climbing Kansas City Center
08:30PM 39.6564 -87.9225 276° West 390 449 31,900 300 Climbing Kansas City Center
08:31PM 39.6683 -88.0644 277° West 390 449 32,000  Climbing Kansas City Center
08:32PM 39.6817 -88.2008 280° West 390 449 32,000  Level Kansas City Center
08:33PM 39.6986 -88.3233 283° West 390 449 32,000  Level Kansas City Center
08:34PM 39.7244 -88.4642 283° West 397 457 32,000  Level Kansas City Center
08:35PM 39.7503 -88.6053 283° West 403 464 32,000  Level Kansas City Center
08:36PM 39.7761 -88.7489 283° West 411 473 32,000  Level Kansas City Center
08:37PM 39.8017 -88.8900 283° West 411 473 32,000  Level Kansas City Center
08:38PM 39.8272 -89.0367 283° West 411 473 32,000  Level Kansas City Center
08:39PM 39.8522 -89.1753 284° West 411 473 32,000  Level Kansas City Center
08:40PM 39.8794 -89.3219 282° West 411 473 32,000  Level Kansas City Center
08:41PM 39.9022 -89.4639 282° West 411 473 32,000  Level Kansas City Center
08:42PM 39.9269 -89.6108 283° West 411 473 32,000  Level Kansas City Center
08:43PM 39.9539 -89.7661 282° West 411 473 32,000  Level Kansas City Center
08:44PM 39.9783 -89.9106 283° West 411 473 32,000  Level Kansas City Center
08:45PM 40.0047 -90.0553 281° West 411 473 32,000  Level Kansas City Center
08:46PM 40.0267 -90.1975 283° West 411 473 32,000  Level Kansas City Center
08:47PM 40.0525 -90.3425 282° West 411 473 32,000  Level Kansas City Center
08:48PM 40.0764 -90.4900 282° West 411 473 32,000  Level Kansas City Center
08:49PM 40.0997 -90.6353 282° West 411 473 32,000  Level Kansas City Center
08:50PM 40.1233 -90.7833 283° West 411 473 32,000  Level Kansas City Center
08:51PM 40.1486 -90.9311 282° West 411 473 32,000  Level Kansas City Center
08:52PM 40.1692 -91.0606 282° West 411 473 32,000  Level Kansas City Center
08:53PM 40.1919 -91.2061 281° West 411 473 32,000  Level Kansas City Center
08:54PM 40.2147 -91.3544 282° West 416 479 32,000  Level Kansas City Center
08:55PM 40.2392 -91.5028 282° West 416 479 32,000  Level Kansas City Center
08:56PM 40.2661 -91.6675 281° West 416 479 32,000  Level Kansas City Center
08:57PM 40.2883 -91.8136 282° West 421 484 32,000  Level Kansas City Center
08:58PM 40.3125 -91.9650 281° West 421 484 32,000  Level Kansas City Center
08:59PM 40.3342 -92.1111 282° West 427 491 32,000  Level Kansas City Center
09:00PM 40.3581 -92.2628 279° West 427 491 32,000  Level Kansas City Center
09:01PM 40.3750 -92.3983 281° West 427 491 32,000 -360 Level Kansas City Center
09:04PM 40.4264 -92.7450 281° West 453 521 30,900 -540 Descending Minneapolis Center
09:05PM 40.4500 -92.9053 281° West 447 514 30,400 -480 Descending Minneapolis Center
09:06PM 40.4736 -93.0631 281° West 447 514 30,000 -240 Descending Minneapolis Center
09:07PM 40.4969 -93.2236 280° West 447 514 30,000  Level Minneapolis Center
09:08PM 40.5178 -93.3789 280° West 447 514 30,000  Level Minneapolis Center
09:09PM 40.5386 -93.5369 281° West 447 514 30,000  Level Minneapolis Center
09:10PM 40.5614 -93.6950 280° West 447 514 30,000  Level Minneapolis Center
09:11PM 40.5817 -93.8506 281° West 447 514 30,000  Level Minneapolis Center
09:12PM 40.6017 -93.9925 282° West 442 509 30,000  Level Minneapolis Center
09:13PM 40.6258 -94.1483 283° West 442 509 30,000  Level Minneapolis Center
09:14PM 40.6517 -94.3014 283° West 442 509 30,000 -1,020 Level Minneapolis Center
09:15PM 40.6775 -94.4547 282° West 442 509 28,000 -2,700 Descending Minneapolis Center
09:16PM 40.7028 -94.6192 284° West 432 497 24,600 -2,940 Descending Minneapolis Center
09:17PM 40.7244 -94.7342 281° West 415 478 22,200 -2,700 Descending Minneapolis Center
09:18PM 40.7475 -94.8878 280° West 407 468 19,200 -3,120 Descending Minneapolis Center
09:19PM 40.7664 -95.0250 301° West 390 449 16,000 -2,160 Descending Minneapolis Center
09:19PM 40.7964 -95.0917 285° West 347 399 16,000  Level Minneapolis Center
09:20PM 40.8061 -95.1383 320° Northwest 352 405 16,000  Level Minneapolis Center
09:20PM 40.8572 -95.1944 307° West 352 405 16,000 -720 Level Minneapolis Center
09:21PM 40.9181 -95.3003 306° West 361 415 14,900 -1,740 Descending Minneapolis Center
09:22PM 40.9764 -95.4064 313° West 354 407 12,500 -2,340 Descending Minneapolis Center
09:23PM 41.0414 -95.4992 323° Northwest 318 366 10,300 -1,800 Descending Minneapolis Center
09:24PM 41.1086 -95.5672 324° Northwest 278 320 8,800 -1,800 Descending Minneapolis Center
09:25PM 41.1739 -95.6300 326° Northwest 277 319 6,600 -1,980 Descending Minneapolis Center
09:26PM 41.2311 -95.6817 326° Northwest 274 315 5,000 -1,380 Descending Minneapolis Center
09:27PM 41.2883 -95.7333 323° Northwest 257 296 4,000 -900 Descending Minneapolis Center
09:28PM 41.3514 -95.7964 322° Northwest 268 308 3,200 -780 Descending Minneapolis Center
09:29PM 41.4125 -95.8597 290° West 259 298 2,400 -420 Descending Minneapolis Center
09:30PM 41.4281 -95.9156 225° Southwest 210 242 2,400  Level Minneapolis Center
09:31PM 41.3978 -95.9558 184° South 169 194 2,400 -180 Level Minneapolis Center
09:32PM 41.3603 -95.9597 146° Southeast 124 143 2,100 -480 Descending Minneapolis Center
09:33PM 41.3319 -95.9339 146° Southeast 124 143 1,400 -720 Descending Minneapolis Center